createdAt,value
2022-09-13T00:00:00.580Z,99489.22
2022-09-13T00:00:32.033Z,99486.78
2022-09-13T00:01:03.563Z,99490.34
2022-09-13T00:01:35.069Z,99484.06
2022-09-13T00:02:06.655Z,99483.56
2022-09-13T00:02:38.090Z,99484.38
2022-09-13T00:03:09.514Z,99480.03
2022-09-13T00:03:40.938Z,99477.28
2022-09-13T00:04:12.352Z,99475.34
2022-09-13T00:04:43.796Z,99478.41
2022-09-13T00:05:15.202Z,99482.75
2022-09-13T00:05:46.602Z,99475.66
2022-09-13T00:06:18.003Z,99477.28
2022-09-13T00:06:49.422Z,99474.06
2022-09-13T00:07:20.816Z,99471.81
2022-09-13T00:07:52.194Z,99469.72
2022-09-13T00:08:23.601Z,99470.50
2022-09-13T00:08:55.058Z,99461.81
2022-09-13T00:09:26.521Z,99463.75
2022-09-13T00:09:58.112Z,99465.19
2022-09-13T00:10:29.621Z,99472.44
2022-09-13T00:11:01.081Z,99474.69
2022-09-13T00:11:32.658Z,99468.91
2022-09-13T00:12:04.140Z,99470.03
2022-09-13T00:12:35.731Z,99466.97
2022-09-13T00:13:07.150Z,99463.75
2022-09-13T00:13:38.644Z,99463.75
2022-09-13T00:14:10.178Z,99462.94
2022-09-13T00:14:41.618Z,99461.31
2022-09-13T00:15:13.312Z,99455.38
2022-09-13T00:15:44.739Z,99464.38
2022-09-13T00:16:16.277Z,99460.84
2022-09-13T00:16:47.781Z,99465.50
2022-09-13T00:17:19.194Z,99459.53
2022-09-13T00:17:50.571Z,99460.84
2022-09-13T00:18:21.976Z,99458.09
2022-09-13T00:18:53.348Z,99465.19
2022-09-13T00:19:24.745Z,99458.09
2022-09-13T00:19:56.155Z,99460.03
2022-09-13T00:20:27.599Z,99454.88
2022-09-13T00:20:59.032Z,99455.69
2022-09-13T00:21:30.436Z,99451.81
2022-09-13T00:22:01.814Z,99454.25
2022-09-13T00:22:33.225Z,99451.81
2022-09-13T00:23:04.643Z,99463.56
2022-09-13T00:23:36.033Z,99455.38
2022-09-13T00:24:07.414Z,99464.38
2022-09-13T00:24:38.893Z,99465.81
2022-09-13T00:25:10.322Z,99470.47
2022-09-13T00:25:41.769Z,99462.25
2022-09-13T00:26:13.192Z,99458.09
2022-09-13T00:26:44.600Z,99465.19
2022-09-13T00:27:16.035Z,99469.84
2022-09-13T00:27:47.465Z,99455.69
2022-09-13T00:28:18.847Z,99460.34
2022-09-13T00:28:50.277Z,99457.28
2022-09-13T00:29:21.719Z,99451.81
2022-09-13T00:29:53.089Z,99455.69
2022-09-13T00:30:25.773Z,99449.41
2022-09-13T00:30:57.217Z,99453.75
2022-09-13T00:31:28.731Z,99454.56
2022-09-13T00:32:00.232Z,99449.09
2022-09-13T00:32:31.681Z,99445.72
2022-09-13T00:33:03.149Z,99443.31
2022-09-13T00:33:34.547Z,99440.06
2022-09-13T00:34:06.009Z,99440.38
2022-09-13T00:34:37.361Z,99439.91
2022-09-13T00:35:08.767Z,99428.97
2022-09-13T00:35:40.155Z,99429.75
2022-09-13T00:36:11.635Z,99429.44
2022-09-13T00:36:43.098Z,99422.38
2022-09-13T00:37:14.491Z,99422.69
2022-09-13T00:37:45.842Z,99421.88
2022-09-13T00:38:17.272Z,99412.56
2022-09-13T00:38:48.655Z,99414.47
2022-09-13T00:39:20.099Z,99414.47
2022-09-13T00:39:51.542Z,99410.63
2022-09-13T00:40:23.007Z,99414.16
2022-09-13T00:40:54.499Z,99414.97
2022-09-13T00:41:25.947Z,99416.59
2022-09-13T00:41:57.395Z,99422.06
2022-09-13T00:42:28.792Z,99420.44
2022-09-13T00:43:00.162Z,99418.81
2022-09-13T00:43:31.599Z,99423.66
2022-09-13T00:44:03.007Z,99430.25
2022-09-13T00:44:34.413Z,99418.03
2022-09-13T00:45:06.799Z,99416.91
2022-09-13T00:45:38.236Z,99421.56
2022-09-13T00:46:09.711Z,99426.22
2022-09-13T00:46:41.214Z,99422.88
2022-09-13T00:47:12.604Z,99423.66
2022-09-13T00:47:44.024Z,99425.91
2022-09-13T00:48:15.425Z,99419.31
2022-09-13T00:48:46.797Z,99424.31
2022-09-13T00:49:18.225Z,99419.16
2022-09-13T00:49:49.673Z,99418.03
2022-09-13T00:50:21.061Z,99422.69
2022-09-13T00:50:52.439Z,99420.13
2022-09-13T00:51:23.835Z,99415.78
2022-09-13T00:51:55.363Z,99417.22
2022-09-13T00:52:26.758Z,99413.69
2022-09-13T00:52:58.158Z,99414.47
2022-09-13T00:53:29.656Z,99410.94
2022-09-13T00:54:01.093Z,99418.03
2022-09-13T00:54:32.510Z,99412.56
2022-09-13T00:55:03.924Z,99410.94
2022-09-13T00:55:35.383Z,99412.56
2022-09-13T00:56:06.842Z,99409.50
2022-09-13T00:56:38.256Z,99413.69
2022-09-13T00:57:09.695Z,99406.28
2022-09-13T00:57:41.128Z,99408.22
2022-09-13T00:58:12.529Z,99414.78
2022-09-13T00:58:43.957Z,99412.06
2022-09-13T00:59:15.340Z,99414.78
2022-09-13T00:59:46.788Z,99412.88
2022-09-13T01:00:18.182Z,99410.94
2022-09-13T01:00:49.652Z,99412.56
2022-09-13T01:01:21.177Z,99410.13
2022-09-13T01:01:52.611Z,99410.13
2022-09-13T01:02:24.153Z,99404.66
2022-09-13T01:02:55.623Z,99404.34
2022-09-13T01:03:27.028Z,99410.31
2022-09-13T01:03:58.449Z,99404.66
2022-09-13T01:04:29.875Z,99403.06
2022-09-13T01:05:01.303Z,99406.09
2022-09-13T01:05:32.683Z,99407.72
2022-09-13T01:06:04.155Z,99405.28
2022-09-13T01:06:35.545Z,99404.19
2022-09-13T01:07:07.169Z,99406.59
2022-09-13T01:07:38.669Z,99407.09
2022-09-13T01:08:10.064Z,99411.75
2022-09-13T01:08:41.515Z,99409.34
2022-09-13T01:09:12.898Z,99405.28
2022-09-13T01:09:44.294Z,99413.50
2022-09-13T01:10:15.678Z,99408.03
2022-09-13T01:10:47.058Z,99408.03
2022-09-13T01:11:18.432Z,99414.31
2022-09-13T01:11:49.808Z,99412.69
2022-09-13T01:12:21.212Z,99418.16
2022-09-13T01:12:52.666Z,99412.19
2022-09-13T01:13:24.056Z,99415.44
2022-09-13T01:13:55.458Z,99411.72
2022-09-13T01:14:26.870Z,99414.63
2022-09-13T01:14:58.257Z,99413.81
2022-09-13T01:15:29.672Z,99413.81
2022-09-13T01:16:01.168Z,99416.22
2022-09-13T01:16:32.622Z,99409.97
2022-09-13T01:17:04.166Z,99413.81
2022-09-13T01:17:35.577Z,99402.88
2022-09-13T01:18:07.007Z,99411.56
2022-09-13T01:18:38.436Z,99415.44
2022-09-13T01:19:09.889Z,99406.72
2022-09-13T01:19:41.346Z,99414.94
2022-09-13T01:20:12.784Z,99416.06
2022-09-13T01:20:44.249Z,99409.47
2022-09-13T01:21:15.654Z,99411.88
2022-09-13T01:21:47.086Z,99411.88
2022-09-13T01:22:18.470Z,99411.88
2022-09-13T01:22:49.869Z,99408.34
2022-09-13T01:23:21.309Z,99405.94
2022-09-13T01:23:52.768Z,99397.72
2022-09-13T01:24:24.188Z,99405.59
2022-09-13T01:24:55.680Z,99407.53
2022-09-13T01:25:27.089Z,99399.34
2022-09-13T01:25:58.500Z,99405.13
2022-09-13T01:26:29.895Z,99396.91
2022-09-13T01:27:01.282Z,99398.34
2022-09-13T01:27:32.755Z,99398.03
2022-09-13T01:28:04.169Z,99388.22
2022-09-13T01:28:35.641Z,99389.84
2022-09-13T01:29:07.176Z,99391.75
2022-09-13T01:29:38.596Z,99396.09
2022-09-13T01:30:10.008Z,99393.38
2022-09-13T01:30:41.420Z,99389.53
2022-09-13T01:31:12.944Z,99389.03
2022-09-13T01:31:44.485Z,99390.63
2022-09-13T01:32:15.963Z,99387.09
2022-09-13T01:32:47.396Z,99392.25
2022-09-13T01:33:18.792Z,99389.53
2022-09-13T01:33:50.259Z,99391.13
2022-09-13T01:34:21.692Z,99394.69
2022-09-13T01:34:53.091Z,99391.44
2022-09-13T01:35:24.477Z,99391.44
2022-09-13T01:35:55.881Z,99385.66
2022-09-13T01:36:27.318Z,99393.88
2022-09-13T01:36:58.712Z,99391.44
2022-09-13T01:37:30.122Z,99395.00
2022-09-13T01:38:01.504Z,99389.53
2022-09-13T01:38:32.932Z,99391.44
2022-09-13T01:39:04.393Z,99387.59
2022-09-13T01:39:35.801Z,99386.78
2022-09-13T01:40:07.331Z,99395.00
2022-09-13T01:40:38.737Z,99398.84
2022-09-13T01:41:10.138Z,99395.78
2022-09-13T01:41:41.549Z,99390.31
2022-09-13T01:42:12.959Z,99398.03
2022-09-13T01:42:44.369Z,99388.41
2022-09-13T01:43:15.779Z,99390.00
2022-09-13T01:43:47.294Z,99381.63
2022-09-13T01:44:18.770Z,99387.91
2022-09-13T01:44:50.289Z,99393.88
2022-09-13T01:45:21.827Z,99390.31
2022-09-13T01:45:53.316Z,99387.09
2022-09-13T01:46:24.827Z,99391.13
2022-09-13T01:46:56.372Z,99388.72
2022-09-13T01:47:28.009Z,99387.91
2022-09-13T01:47:59.473Z,99389.22
2022-09-13T01:48:30.887Z,99388.72
2022-09-13T01:49:02.360Z,99389.53
2022-09-13T01:49:34.177Z,99388.72
2022-09-13T01:50:05.874Z,99390.97
2022-09-13T01:50:37.540Z,99391.75
2022-09-13T01:51:09.182Z,99393.38
2022-09-13T01:51:40.699Z,99390.16
2022-09-13T01:52:12.115Z,99392.88
2022-09-13T01:52:43.530Z,99385.97
2022-09-13T01:53:14.957Z,99387.91
2022-09-13T01:53:46.454Z,99394.19
2022-09-13T01:54:18.018Z,99391.94
2022-09-13T01:54:49.435Z,99394.19
2022-09-13T01:55:20.878Z,99389.84
2022-09-13T01:55:52.279Z,99395.31
2022-09-13T01:56:23.682Z,99393.38
2022-09-13T01:56:55.129Z,99388.22
2022-09-13T01:57:26.538Z,99398.03
2022-09-13T01:57:57.945Z,99389.84
2022-09-13T01:58:29.343Z,99397.22
2022-09-13T01:59:00.773Z,99388.22
2022-09-13T01:59:32.158Z,99399.16
2022-09-13T02:00:03.596Z,99392.06
2022-09-13T02:00:35.009Z,99394.19
2022-09-13T02:01:06.633Z,99398.34
2022-09-13T02:01:38.091Z,99399.97
2022-09-13T02:02:09.582Z,99393.69
2022-09-13T02:02:41.071Z,99406.56
2022-09-13T02:03:12.517Z,99404.13
2022-09-13T02:03:43.922Z,99398.66
2022-09-13T02:04:15.326Z,99393.69
2022-09-13T02:04:46.744Z,99396.41
2022-09-13T02:05:18.147Z,99397.53
2022-09-13T02:05:49.544Z,99393.19
2022-09-13T02:06:20.979Z,99392.88
2022-09-13T02:06:52.483Z,99396.75
2022-09-13T02:07:23.990Z,99392.06
2022-09-13T02:07:55.350Z,99400.59
2022-09-13T02:08:26.734Z,99387.72
2022-09-13T02:08:58.131Z,99389.66
2022-09-13T02:09:29.540Z,99386.59
2022-09-13T02:10:00.935Z,99395.63
2022-09-13T02:10:32.307Z,99394.81
2022-09-13T02:11:03.700Z,99398.66
2022-09-13T02:11:35.085Z,99398.34
2022-09-13T02:12:06.557Z,99397.84
2022-09-13T02:12:38.046Z,99395.13
2022-09-13T02:13:09.442Z,99391.91
2022-09-13T02:13:40.845Z,99387.25
2022-09-13T02:14:12.262Z,99401.41
2022-09-13T02:14:43.702Z,99392.38
2022-09-13T02:15:15.107Z,99395.94
2022-09-13T02:15:46.488Z,99391.59
2022-09-13T02:16:17.993Z,99392.38
2022-09-13T02:16:49.467Z,99391.09
2022-09-13T02:17:20.903Z,99388.84
2022-09-13T02:17:52.323Z,99394.31
2022-09-13T02:18:23.796Z,99391.59
2022-09-13T02:18:55.313Z,99389.66
2022-09-13T02:19:26.723Z,99394.31
2022-09-13T02:19:58.093Z,99395.13
2022-09-13T02:20:29.524Z,99394.63
2022-09-13T02:21:01.005Z,99393.81
2022-09-13T02:21:32.453Z,99393.81
2022-09-13T02:22:03.918Z,99394.94
2022-09-13T02:22:35.452Z,99385.63
2022-09-13T02:23:06.863Z,99385.63
2022-09-13T02:23:38.291Z,99386.75
2022-09-13T02:24:09.686Z,99393.31
2022-09-13T02:24:41.121Z,99383.69
2022-09-13T02:25:12.677Z,99390.47
2022-09-13T02:25:44.080Z,99391.59
2022-09-13T02:26:15.521Z,99394.31
2022-09-13T02:26:46.927Z,99389.16
2022-09-13T02:27:18.315Z,99392.22
2022-09-13T02:27:49.741Z,99388.34
2022-09-13T02:28:21.267Z,99389.47
2022-09-13T02:28:52.654Z,99386.75
2022-09-13T02:29:24.081Z,99386.91
2022-09-13T02:29:55.452Z,99383.38
2022-09-13T02:30:26.927Z,99389.66
2022-09-13T02:30:58.312Z,99388.84
2022-09-13T02:31:29.733Z,99385.63
2022-09-13T02:32:01.222Z,99396.56
2022-09-13T02:32:32.714Z,99397.69
2022-09-13T02:33:04.097Z,99397.38
2022-09-13T02:33:35.504Z,99389.47
2022-09-13T02:34:06.923Z,99393.03
2022-09-13T02:34:38.335Z,99393.03
2022-09-13T02:35:09.777Z,99390.78
2022-09-13T02:35:41.161Z,99387.25
2022-09-13T02:36:12.580Z,99389.66
2022-09-13T02:36:44.016Z,99382.88
2022-09-13T02:37:15.436Z,99389.16
2022-09-13T02:37:46.848Z,99387.25
2022-09-13T02:38:18.279Z,99386.44
2022-09-13T02:38:49.741Z,99390.78
2022-09-13T02:39:21.131Z,99393.69
2022-09-13T02:39:52.583Z,99393.19
2022-09-13T02:40:24.016Z,99398.66
2022-09-13T02:40:55.420Z,99388.03
2022-09-13T02:41:26.828Z,99397.06
2022-09-13T02:41:58.168Z,99397.06
2022-09-13T02:42:29.587Z,99393.50
2022-09-13T02:43:00.991Z,99388.84
2022-09-13T02:43:32.391Z,99398.66
2022-09-13T02:44:03.897Z,99394.00
2022-09-13T02:44:35.334Z,99398.66
2022-09-13T02:45:06.816Z,99397.06
2022-09-13T02:45:38.234Z,99396.25
2022-09-13T02:46:09.692Z,99393.03
2022-09-13T02:46:41.125Z,99390.28
2022-09-13T02:47:12.536Z,99393.81
2022-09-13T02:47:43.999Z,99386.13
2022-09-13T02:48:15.400Z,99387.56
2022-09-13T02:48:46.972Z,99386.44
2022-09-13T02:49:18.562Z,99385.63
2022-09-13T02:49:49.986Z,99394.31
2022-09-13T02:50:21.413Z,99390.97
2022-09-13T02:50:52.839Z,99387.72
2022-09-13T02:51:24.343Z,99388.84
2022-09-13T02:51:55.714Z,99384.50
2022-09-13T02:52:27.169Z,99383.69
2022-09-13T02:52:58.627Z,99391.91
2022-09-13T02:53:30.026Z,99386.75
2022-09-13T02:54:01.469Z,99389.16
2022-09-13T02:54:32.908Z,99386.13
2022-09-13T02:55:04.300Z,99387.25
2022-09-13T02:55:35.733Z,99388.34
2022-09-13T02:56:07.211Z,99395.75
2022-09-13T02:56:38.637Z,99385.94
2022-09-13T02:57:10.046Z,99381.28
2022-09-13T02:57:41.474Z,99380.47
2022-09-13T02:58:12.860Z,99384.81
2022-09-13T02:58:44.293Z,99379.03
2022-09-13T02:59:15.677Z,99377.44
2022-09-13T02:59:47.280Z,99382.88
2022-09-13T03:00:18.771Z,99382.88
2022-09-13T03:00:50.330Z,99379.84
2022-09-13T03:01:21.899Z,99378.22
2022-09-13T03:01:53.418Z,99376.63
2022-09-13T03:02:24.950Z,99378.22
2022-09-13T03:02:56.414Z,99371.97
2022-09-13T03:03:27.776Z,99378.22
2022-09-13T03:03:59.180Z,99373.56
2022-09-13T03:04:30.582Z,99377.44
2022-09-13T03:05:02.012Z,99379.34
2022-09-13T03:05:33.407Z,99376.63
2022-09-13T03:06:04.831Z,99382.09
2022-09-13T03:06:36.332Z,99376.31
2022-09-13T03:07:07.715Z,99381.28
2022-09-13T03:07:39.122Z,99382.09
2022-09-13T03:08:10.547Z,99382.41
2022-09-13T03:08:42.006Z,99375.31
2022-09-13T03:09:13.480Z,99384.31
2022-09-13T03:09:44.872Z,99381.59
2022-09-13T03:10:16.358Z,99380.47
2022-09-13T03:10:47.756Z,99380.47
2022-09-13T03:11:19.184Z,99382.09
2022-09-13T03:11:50.592Z,99379.66
2022-09-13T03:12:21.987Z,99386.75
2022-09-13T03:12:53.367Z,99387.06
2022-09-13T03:13:24.782Z,99391.41
2022-09-13T03:13:56.223Z,99383.50
2022-09-13T03:14:27.585Z,99384.63
2022-09-13T03:14:58.955Z,99383.50
2022-09-13T03:15:30.359Z,99390.59
2022-09-13T03:16:01.870Z,99381.91
2022-09-13T03:16:33.374Z,99387.06
2022-09-13T03:17:04.889Z,99382.41
2022-09-13T03:17:36.344Z,99385.13
2022-09-13T03:18:07.788Z,99382.88
2022-09-13T03:18:39.271Z,99379.66
2022-09-13T03:19:10.678Z,99382.88
2022-09-13T03:19:42.085Z,99384.31
2022-09-13T03:20:13.474Z,99380.16
2022-09-13T03:20:44.830Z,99382.88
2022-09-13T03:21:16.267Z,99385.63
2022-09-13T03:21:47.685Z,99382.88
2022-09-13T03:22:19.086Z,99379.66
2022-09-13T03:22:50.471Z,99381.59
2022-09-13T03:23:21.860Z,99383.50
2022-09-13T03:23:53.237Z,99382.41
2022-09-13T03:24:24.667Z,99379.97
2022-09-13T03:24:56.066Z,99379.16
2022-09-13T03:25:27.515Z,99378.84
2022-09-13T03:25:58.912Z,99378.06
2022-09-13T03:26:30.421Z,99378.53
2022-09-13T03:27:01.831Z,99375.81
2022-09-13T03:27:33.291Z,99375.00
2022-09-13T03:28:04.752Z,99375.81
2022-09-13T03:28:36.362Z,99382.41
2022-09-13T03:29:07.842Z,99373.38
2022-09-13T03:29:39.230Z,99376.94
2022-09-13T03:30:10.660Z,99376.13
2022-09-13T03:30:42.073Z,99379.66
2022-09-13T03:31:13.621Z,99382.41
2022-09-13T03:31:45.614Z,99382.41
2022-09-13T03:32:17.080Z,99374.50
2022-09-13T03:32:48.470Z,99380.78
2022-09-13T03:33:19.873Z,99374.50
2022-09-13T03:33:51.344Z,99381.91
2022-09-13T03:34:22.744Z,99374.50
2022-09-13T03:34:54.327Z,99375.31
2022-09-13T03:35:25.748Z,99378.06
2022-09-13T03:35:57.141Z,99375.31
2022-09-13T03:36:28.573Z,99380.47
2022-09-13T03:37:00.046Z,99376.31
2022-09-13T03:37:31.442Z,99370.66
2022-09-13T03:38:02.870Z,99370.97
2022-09-13T03:38:34.246Z,99372.28
2022-09-13T03:39:05.813Z,99371.16
2022-09-13T03:39:37.193Z,99374.19
2022-09-13T03:40:08.736Z,99377.25
2022-09-13T03:40:40.255Z,99376.44
2022-09-13T03:41:11.688Z,99368.56
2022-09-13T03:41:43.083Z,99379.16
2022-09-13T03:42:14.536Z,99384.31
2022-09-13T03:42:45.963Z,99381.59
2022-09-13T03:43:17.369Z,99382.72
2022-09-13T03:43:48.937Z,99383.50
2022-09-13T03:44:20.434Z,99386.25
2022-09-13T03:44:51.977Z,99380.78
2022-09-13T03:45:23.441Z,99378.84
2022-09-13T03:45:54.893Z,99381.09
2022-09-13T03:46:26.321Z,99383.03
2022-09-13T03:46:57.697Z,99381.91
2022-09-13T03:47:29.182Z,99387.88
2022-09-13T03:48:00.592Z,99385.13
2022-09-13T03:48:32.001Z,99391.41
2022-09-13T03:49:03.365Z,99384.16
2022-09-13T03:49:34.763Z,99385.75
2022-09-13T03:50:06.444Z,99386.56
2022-09-13T03:50:37.953Z,99385.13
2022-09-13T03:51:09.365Z,99388.19
2022-09-13T03:51:40.798Z,99392.22
2022-09-13T03:52:12.194Z,99381.91
2022-09-13T03:52:46.501Z,99392.84
2022-09-13T03:53:18.088Z,99388.97
2022-09-13T03:53:49.520Z,99390.28
2022-09-13T03:54:20.948Z,99392.53
2022-09-13T03:54:52.341Z,99390.59
2022-09-13T03:55:23.778Z,99389.97
2022-09-13T03:55:55.200Z,99391.41
2022-09-13T03:56:26.559Z,99390.91
2022-09-13T03:56:57.949Z,99388.19
2022-09-13T03:57:29.354Z,99392.84
2022-09-13T03:58:00.803Z,99392.84
2022-09-13T03:58:32.250Z,99384.63
2022-09-13T03:59:03.674Z,99388.97
2022-09-13T03:59:35.107Z,99383.03
2022-09-13T04:00:06.619Z,99390.41
2022-09-13T04:00:38.100Z,99384.63
2022-09-13T04:01:09.534Z,99392.84
2022-09-13T04:01:40.986Z,99382.22
2022-09-13T04:02:12.438Z,99393.97
2022-09-13T04:02:43.864Z,99384.31
2022-09-13T04:03:15.329Z,99388.19
2022-09-13T04:03:46.764Z,99387.38
2022-09-13T04:04:18.186Z,99373.22
2022-09-13T04:04:49.593Z,99384.63
2022-09-13T04:05:20.978Z,99383.03
2022-09-13T04:05:52.430Z,99376.44
2022-09-13T04:06:23.921Z,99379.97
2022-09-13T04:06:55.386Z,99381.09
2022-09-13T04:07:26.838Z,99374.81
2022-09-13T04:07:58.240Z,99374.50
2022-09-13T04:08:29.689Z,99377.25
2022-09-13T04:09:01.118Z,99367.94
2022-09-13T04:09:32.553Z,99376.94
2022-09-13T04:10:04.080Z,99373.38
2022-09-13T04:10:35.457Z,99369.03
2022-09-13T04:11:06.909Z,99376.94
2022-09-13T04:11:38.350Z,99370.16
2022-09-13T04:12:09.787Z,99371.16
2022-09-13T04:12:41.230Z,99372.59
2022-09-13T04:13:12.672Z,99376.13
2022-09-13T04:13:44.132Z,99378.84
2022-09-13T04:14:15.663Z,99372.59
2022-09-13T04:14:47.050Z,99379.97
2022-09-13T04:15:18.462Z,99375.31
2022-09-13T04:15:49.883Z,99372.09
2022-09-13T04:16:21.268Z,99377.25
2022-09-13T04:16:52.713Z,99368.56
2022-09-13T04:17:24.138Z,99371.28
2022-09-13T04:17:55.562Z,99367.75
2022-09-13T04:18:26.970Z,99365.00
2022-09-13T04:18:58.407Z,99372.09
2022-09-13T04:19:29.836Z,99376.44
2022-09-13T04:20:01.237Z,99372.91
2022-09-13T04:20:32.669Z,99377.25
2022-09-13T04:21:04.062Z,99374.81
2022-09-13T04:21:35.489Z,99369.03
2022-09-13T04:22:06.932Z,99372.91
2022-09-13T04:22:38.321Z,99370.97
2022-09-13T04:23:09.708Z,99375.63
2022-09-13T04:23:41.121Z,99370.97
2022-09-13T04:24:12.638Z,99370.16
2022-09-13T04:24:44.055Z,99373.69
2022-09-13T04:25:15.469Z,99371.78
2022-09-13T04:25:46.838Z,99370.16
2022-09-13T04:26:18.263Z,99373.69
2022-09-13T04:26:49.635Z,99370.97
2022-09-13T04:27:21.047Z,99368.25
2022-09-13T04:27:52.482Z,99365.50
2022-09-13T04:28:23.913Z,99362.78
2022-09-13T04:28:55.285Z,99368.25
2022-09-13T04:29:26.732Z,99367.44
2022-09-13T04:29:58.107Z,99355.69
2022-09-13T04:30:29.548Z,99361.16
2022-09-13T04:31:00.988Z,99354.56
2022-09-13T04:31:32.403Z,99355.69
2022-09-13T04:32:03.859Z,99358.13
2022-09-13T04:32:35.255Z,99356.00
2022-09-13T04:33:06.813Z,99350.53
2022-09-13T04:33:38.210Z,99353.28
2022-09-13T04:34:09.650Z,99351.34
2022-09-13T04:34:41.092Z,99345.06
2022-09-13T04:35:12.488Z,99347.50
2022-09-13T04:35:43.985Z,99345.88
2022-09-13T04:36:15.400Z,99347.00
2022-09-13T04:36:46.840Z,99352.97
2022-09-13T04:37:18.265Z,99348.63
2022-09-13T04:37:49.653Z,99349.75
2022-09-13T04:38:21.049Z,99345.06
2022-09-13T04:38:52.457Z,99343.78
2022-09-13T04:39:23.950Z,99344.28
2022-09-13T04:39:55.517Z,99334.13
2022-09-13T04:40:27.049Z,99345.38
2022-09-13T04:40:58.423Z,99346.88
2022-09-13T04:41:29.877Z,99339.28
2022-09-13T04:42:01.312Z,99342.03
2022-09-13T04:42:32.724Z,99354.56
2022-09-13T04:43:04.143Z,99358.44
2022-09-13T04:43:35.526Z,99351.34
2022-09-13T04:44:06.895Z,99348.94
2022-09-13T04:44:38.258Z,99356.81
2022-09-13T04:45:09.694Z,99356.50
2022-09-13T04:45:41.150Z,99362.78
2022-09-13T04:46:12.591Z,99363.25
2022-09-13T04:46:44.054Z,99365.50
2022-09-13T04:47:15.458Z,99361.16
2022-09-13T04:47:46.855Z,99364.38
2022-09-13T04:48:18.248Z,99363.09
2022-09-13T04:48:49.774Z,99361.97
2022-09-13T04:49:21.331Z,99370.16
2022-09-13T04:49:52.778Z,99370.16
2022-09-13T04:50:24.215Z,99367.75
2022-09-13T04:50:55.626Z,99372.41
2022-09-13T04:51:27.024Z,99370.47
2022-09-13T04:51:58.431Z,99370.47
2022-09-13T04:52:29.820Z,99370.78
2022-09-13T04:53:01.206Z,99372.41
2022-09-13T04:53:32.690Z,99375.94
2022-09-13T04:54:04.090Z,99381.41
2022-09-13T04:54:35.478Z,99374.19
2022-09-13T04:55:06.858Z,99381.91
2022-09-13T04:55:38.351Z,99375.63
2022-09-13T04:56:09.788Z,99374.03
2022-09-13T04:56:41.228Z,99371.28
2022-09-13T04:57:12.656Z,99369.34
2022-09-13T04:57:44.086Z,99374.03
2022-09-13T04:58:15.477Z,99376.75
2022-09-13T04:58:46.892Z,99381.41
2022-09-13T04:59:18.316Z,99379.47
2022-09-13T04:59:49.736Z,99380.47
2022-09-13T05:00:21.173Z,99380.78
2022-09-13T05:00:52.693Z,99380.47
2022-09-13T05:01:27.654Z,99375.63
2022-09-13T05:01:59.435Z,99372.09
2022-09-13T05:02:30.941Z,99380.28
2022-09-13T05:03:02.375Z,99373.69
2022-09-13T05:03:33.778Z,99376.75
2022-09-13T05:04:05.671Z,99378.69
2022-09-13T05:04:37.182Z,99372.41
2022-09-13T05:05:08.675Z,99374.34
2022-09-13T05:05:40.077Z,99375.13
2022-09-13T05:06:11.531Z,99372.09
2022-09-13T05:06:42.914Z,99375.31
2022-09-13T05:07:14.330Z,99377.25
2022-09-13T05:07:45.750Z,99372.91
2022-09-13T05:08:17.157Z,99367.44
2022-09-13T05:08:48.685Z,99375.13
2022-09-13T05:09:20.183Z,99373.53
2022-09-13T05:09:51.599Z,99370.00
2022-09-13T05:10:22.988Z,99374.66
2022-09-13T05:10:54.390Z,99375.44
2022-09-13T05:11:25.760Z,99372.41
2022-09-13T05:11:57.187Z,99376.44
2022-09-13T05:12:28.651Z,99376.75
2022-09-13T05:13:00.061Z,99383.34
2022-09-13T05:13:31.472Z,99377.06
2022-09-13T05:14:02.829Z,99378.69
2022-09-13T05:14:34.350Z,99377.06
2022-09-13T05:15:05.882Z,99370.78
2022-09-13T05:15:37.358Z,99374.34
2022-09-13T05:16:08.959Z,99374.66
2022-09-13T05:16:40.544Z,99371.59
2022-09-13T05:17:11.976Z,99366.13
2022-09-13T05:17:43.370Z,99370.47
2022-09-13T05:18:14.787Z,99372.41
2022-09-13T05:18:46.402Z,99371.59
2022-09-13T05:19:18.069Z,99368.06
2022-09-13T05:19:49.497Z,99366.94
2022-09-13T05:20:20.947Z,99366.13
2022-09-13T05:20:52.319Z,99368.88
2022-09-13T05:21:23.719Z,99363.41
2022-09-13T05:21:55.109Z,99368.88
2022-09-13T05:22:26.518Z,99359.06
2022-09-13T05:22:57.962Z,99363.72
2022-09-13T05:23:29.361Z,99370.00
2022-09-13T05:24:00.783Z,99366.13
2022-09-13T05:24:32.165Z,99367.25
2022-09-13T05:25:03.633Z,99363.72
2022-09-13T05:25:35.021Z,99357.44
2022-09-13T05:26:06.692Z,99364.53
2022-09-13T05:26:38.159Z,99353.59
2022-09-13T05:27:09.565Z,99361.78
2022-09-13T05:27:41.002Z,99357.75
2022-09-13T05:28:12.407Z,99359.38
2022-09-13T05:28:43.833Z,99364.34
2022-09-13T05:29:15.305Z,99361.28
2022-09-13T05:29:46.709Z,99367.56
2022-09-13T05:30:18.188Z,99366.44
2022-09-13T05:30:49.643Z,99368.88
2022-09-13T05:31:21.158Z,99374.66
2022-09-13T05:31:52.606Z,99370.00
2022-09-13T05:32:23.991Z,99374.34
2022-09-13T05:32:55.469Z,99366.75
2022-09-13T05:33:26.862Z,99372.41
2022-09-13T05:33:58.281Z,99365.00
2022-09-13T05:34:29.692Z,99366.94
2022-09-13T05:35:01.081Z,99361.47
2022-09-13T05:35:32.589Z,99368.88
2022-09-13T05:36:03.981Z,99367.25
2022-09-13T05:36:35.356Z,99366.44
2022-09-13T05:37:06.915Z,99363.72
2022-09-13T05:37:38.331Z,99362.09
2022-09-13T05:38:09.750Z,99366.75
2022-09-13T05:38:41.139Z,99365.16
2022-09-13T05:39:29.549Z,99366.75
2022-09-13T05:40:12.493Z,99363.53
2022-09-13T05:40:44.283Z,99368.19
2022-09-13T05:41:15.878Z,99368.19
2022-09-13T05:41:47.275Z,99367.06
2022-09-13T05:42:18.777Z,99356.47
2022-09-13T05:42:50.158Z,99362.41
2022-09-13T05:43:21.568Z,99365.97
2022-09-13T05:43:56.176Z,99358.56
2022-09-13T05:44:29.969Z,99353.59
2022-09-13T05:45:01.395Z,99360.50
2022-09-13T05:45:32.833Z,99356.31
2022-09-13T05:46:04.326Z,99367.25
2022-09-13T05:46:35.878Z,99355.81
2022-09-13T05:47:07.298Z,99359.84
2022-09-13T05:47:38.702Z,99355.19
2022-09-13T05:48:10.121Z,99359.84
2022-09-13T05:48:41.580Z,99367.25
2022-09-13T05:49:13.010Z,99362.09
2022-09-13T05:50:02.186Z,99361.47
2022-09-13T05:50:57.375Z,99358.25
2022-09-13T05:51:27.282Z,99364.53
2022-09-13T05:51:58.704Z,99364.53
2022-09-13T05:52:30.121Z,99363.72
2022-09-13T05:53:01.521Z,99364.84
2022-09-13T05:53:32.970Z,99367.56
2022-09-13T05:54:04.375Z,99367.88
2022-09-13T05:54:35.850Z,99370.31
2022-09-13T05:55:07.281Z,99368.38
2022-09-13T05:55:38.663Z,99370.31
2022-09-13T05:56:14.551Z,99369.81
2022-09-13T05:56:47.920Z,99373.03
2022-09-13T05:57:19.340Z,99370.00
2022-09-13T05:57:50.799Z,99374.97
2022-09-13T05:58:22.213Z,99376.25
2022-09-13T05:58:53.670Z,99370.31
2022-09-13T05:59:25.140Z,99378.69
2022-09-13T05:59:56.626Z,99378.69
2022-09-13T06:00:28.099Z,99382.53
2022-09-13T06:00:59.569Z,99379.31
2022-09-13T06:01:31.044Z,99382.84
2022-09-13T06:02:02.708Z,99385.09
2022-09-13T06:02:34.370Z,99386.22
2022-09-13T06:03:05.922Z,99391.66
2022-09-13T06:03:37.351Z,99391.19
2022-09-13T06:04:08.747Z,99387.94
2022-09-13T06:04:40.206Z,99393.72
2022-09-13T06:05:11.620Z,99392.13
2022-09-13T06:05:42.991Z,99391.63
2022-09-13T06:06:14.433Z,99393.84
2022-09-13T06:06:45.825Z,99394.34
2022-09-13T06:07:17.243Z,99390.31
2022-09-13T06:07:48.676Z,99400.13
2022-09-13T06:08:20.076Z,99398.19
2022-09-13T06:08:51.475Z,99393.06
2022-09-13T06:09:22.882Z,99386.97
2022-09-13T06:09:54.339Z,99395.16
2022-09-13T06:10:25.762Z,99392.91